createdAt,value
2017-06-25T00:01:11.201Z,18.78
2017-06-25T00:03:37.068Z,18.83
2017-06-25T00:06:03.003Z,18.74
2017-06-25T00:08:28.851Z,18.81
2017-06-25T00:10:54.715Z,18.97
2017-06-25T00:13:20.747Z,19.12
2017-06-25T00:15:46.764Z,19.24
2017-06-25T00:18:12.845Z,19.19
2017-06-25T00:20:38.729Z,19.09
2017-06-25T00:23:04.617Z,19.38
2017-06-25T00:25:30.521Z,19.34
2017-06-25T00:27:56.395Z,19.36
2017-06-25T00:30:22.279Z,19.31
2017-06-25T00:32:48.146Z,19.32
2017-06-25T00:35:14.059Z,19.21
2017-06-25T00:37:39.999Z,19.37
2017-06-25T00:40:05.873Z,19.33
2017-06-25T00:42:31.816Z,19.27
2017-06-25T00:44:57.699Z,18.53
2017-06-25T00:47:23.580Z,18.63
2017-06-25T00:49:49.500Z,19.12
2017-06-25T00:52:15.363Z,19.08
2017-06-25T00:54:41.195Z,19.37
2017-06-25T00:57:07.243Z,19.17
2017-06-25T00:59:33.155Z,19.35
2017-06-25T01:01:59.013Z,19.28
2017-06-25T01:04:24.933Z,19.43
2017-06-25T01:06:50.812Z,19.30
2017-06-25T01:09:16.653Z,19.29
2017-06-25T01:11:42.553Z,19.24
2017-06-25T01:14:08.472Z,19.07
2017-06-25T01:16:34.296Z,18.95
2017-06-25T01:19:00.224Z,19.00
2017-06-25T01:21:26.172Z,19.00
2017-06-25T01:23:51.999Z,19.19
2017-06-25T01:26:17.829Z,19.21
2017-06-25T01:28:43.688Z,19.22
2017-06-25T01:31:09.609Z,19.23
2017-06-25T01:33:35.552Z,19.37
2017-06-25T01:36:01.458Z,19.47
2017-06-25T01:38:27.332Z,19.55
2017-06-25T01:40:53.184Z,19.66
2017-06-25T01:43:19.151Z,19.40
2017-06-25T01:45:45.026Z,19.08
2017-06-25T01:48:10.965Z,19.09
2017-06-25T01:50:36.916Z,18.80
2017-06-25T01:53:02.843Z,18.85
2017-06-25T01:55:28.693Z,18.68
2017-06-25T01:57:54.756Z,18.69
2017-06-25T02:00:20.666Z,18.81
2017-06-25T02:02:46.500Z,19.02
2017-06-25T02:05:12.417Z,19.16
2017-06-25T02:07:38.327Z,19.38
2017-06-25T02:10:04.216Z,19.37
2017-06-25T02:12:30.061Z,19.10
2017-06-25T02:14:55.983Z,19.22
2017-06-25T02:17:21.904Z,18.69
2017-06-25T02:19:47.950Z,19.26
2017-06-25T02:22:13.879Z,19.22
2017-06-25T02:24:39.886Z,19.14
2017-06-25T02:27:05.785Z,19.36
2017-06-25T02:29:31.734Z,19.38
2017-06-25T02:31:57.637Z,18.95
2017-06-25T02:34:23.492Z,18.91
2017-06-25T02:36:49.402Z,19.09
2017-06-25T02:39:15.296Z,19.12
2017-06-25T02:41:41.136Z,19.15
2017-06-25T02:44:07.008Z,19.00
2017-06-25T02:46:33.043Z,18.93
2017-06-25T02:48:58.972Z,19.04
2017-06-25T02:51:24.861Z,19.21
2017-06-25T02:53:50.728Z,19.18
2017-06-25T02:56:17.077Z,19.09
2017-06-25T02:58:42.919Z,19.12
2017-06-25T03:01:08.828Z,19.10
2017-06-25T03:03:34.812Z,18.98
2017-06-25T03:06:00.738Z,19.24
2017-06-25T03:08:26.656Z,19.08
2017-06-25T03:10:52.588Z,19.03
2017-06-25T03:13:18.493Z,19.07
2017-06-25T03:15:44.414Z,18.82
2017-06-25T03:18:10.236Z,19.00
2017-06-25T03:20:36.174Z,19.02
2017-06-25T03:23:02.055Z,19.11
2017-06-25T03:25:27.962Z,19.15
2017-06-25T03:27:53.809Z,18.93
2017-06-25T03:30:19.722Z,18.94
2017-06-25T03:32:45.671Z,18.52
2017-06-25T03:35:11.620Z,18.74
2017-06-25T03:37:37.429Z,18.86
2017-06-25T03:40:03.230Z,18.58
2017-06-25T03:42:29.069Z,18.74
2017-06-25T03:44:54.897Z,18.79
2017-06-25T03:47:20.721Z,18.94
2017-06-25T03:49:46.585Z,19.03
2017-06-25T03:52:12.506Z,19.08
2017-06-25T03:54:38.335Z,19.10
2017-06-25T03:57:04.161Z,19.07
2017-06-25T03:59:30.009Z,19.04
2017-06-25T04:01:56.415Z,19.02
2017-06-25T04:04:22.221Z,18.98
2017-06-25T04:06:48.063Z,19.11
2017-06-25T04:09:13.935Z,19.20
2017-06-25T04:11:39.739Z,19.34
2017-06-25T04:14:05.564Z,19.30
2017-06-25T04:16:31.422Z,19.36
2017-06-25T04:18:57.389Z,19.31
2017-06-25T04:21:23.205Z,19.23
2017-06-25T04:23:49.068Z,19.38
2017-06-25T04:26:14.972Z,19.35
2017-06-25T04:28:40.817Z,19.33
2017-06-25T04:31:06.649Z,19.35
2017-06-25T04:33:32.454Z,19.66
2017-06-25T04:35:58.297Z,19.68
2017-06-25T04:38:24.132Z,19.65
2017-06-25T04:40:49.934Z,19.46
2017-06-25T04:43:15.770Z,19.69
2017-06-25T04:45:41.601Z,19.62
2017-06-25T04:48:07.499Z,19.53
2017-06-25T04:50:33.362Z,19.45
2017-06-25T04:52:59.184Z,19.37
2017-06-25T04:55:25.101Z,19.41
2017-06-25T04:57:50.940Z,19.37
2017-06-25T05:00:16.865Z,19.32
2017-06-25T05:02:42.671Z,19.27
2017-06-25T05:05:08.521Z,19.35
2017-06-25T05:07:34.342Z,19.30
2017-06-25T05:10:00.184Z,19.30
2017-06-25T05:12:30.974Z,19.13
2017-06-25T05:15:00.928Z,19.14
2017-06-25T05:17:26.863Z,19.04
2017-06-25T05:19:52.694Z,19.14
2017-06-25T05:22:18.551Z,19.33
2017-06-25T05:24:44.466Z,19.61
2017-06-25T05:27:10.267Z,19.50
2017-06-25T05:29:36.133Z,19.59
2017-06-25T05:32:02.002Z,19.73
2017-06-25T05:34:27.871Z,19.84
2017-06-25T05:36:53.848Z,20.16
2017-06-25T05:39:19.923Z,20.30
2017-06-25T05:41:45.790Z,20.11
2017-06-25T05:44:11.681Z,20.08
2017-06-25T05:46:37.496Z,19.98
2017-06-25T05:49:03.312Z,20.04
2017-06-25T05:51:29.202Z,20.48
2017-06-25T05:53:55.089Z,20.58
2017-06-25T05:56:20.938Z,20.59
2017-06-25T05:58:46.841Z,20.56
2017-06-25T06:01:12.882Z,20.50
2017-06-25T06:03:38.775Z,20.64
2017-06-25T06:06:04.642Z,20.69
2017-06-25T06:08:30.506Z,20.63
2017-06-25T06:10:56.538Z,20.75
2017-06-25T06:13:22.392Z,20.76
2017-06-25T06:15:48.367Z,20.86
2017-06-25T06:18:14.409Z,20.93
2017-06-25T06:20:40.206Z,21.20
2017-06-25T06:23:06.051Z,21.51
2017-06-25T06:25:31.963Z,21.57
2017-06-25T06:27:57.828Z,21.55
2017-06-25T06:30:23.634Z,21.58
2017-06-25T06:32:49.524Z,21.67
2017-06-25T06:35:15.352Z,21.70
2017-06-25T06:37:41.260Z,22.03
2017-06-25T06:40:07.214Z,21.19
2017-06-25T06:42:33.094Z,21.99
2017-06-25T06:45:00.019Z,21.85
2017-06-25T06:47:25.872Z,21.94
2017-06-25T06:49:51.930Z,22.04
2017-06-25T06:52:17.844Z,22.59
2017-06-25T06:54:43.647Z,22.53
2017-06-25T06:57:09.529Z,22.41
2017-06-25T06:59:35.397Z,22.40
2017-06-25T07:02:01.287Z,22.71
2017-06-25T07:04:27.182Z,22.29
2017-06-25T07:06:53.006Z,22.72
2017-06-25T07:09:18.836Z,22.57
2017-06-25T07:11:44.675Z,22.89
2017-06-25T07:14:10.675Z,23.15
2017-06-25T07:16:36.641Z,23.08
2017-06-25T07:19:02.537Z,22.98
2017-06-25T07:21:28.392Z,22.89
2017-06-25T07:23:54.694Z,23.37
2017-06-25T07:26:21.545Z,23.54
2017-06-25T07:28:47.416Z,23.36
2017-06-25T07:31:13.244Z,23.53
2017-06-25T07:33:39.109Z,23.80
2017-06-25T07:36:05.036Z,23.91
2017-06-25T07:38:30.935Z,22.86
2017-06-25T07:40:56.961Z,23.11
2017-06-25T07:43:23.045Z,23.20
2017-06-25T07:45:48.994Z,23.44
2017-06-25T07:48:14.848Z,22.94
2017-06-25T07:50:40.835Z,23.29
2017-06-25T07:53:06.695Z,23.32
2017-06-25T07:55:32.691Z,24.07
2017-06-25T07:57:58.603Z,24.15
2017-06-25T08:00:24.571Z,24.39
2017-06-25T08:02:50.454Z,23.64
2017-06-25T08:05:16.693Z,24.51
2017-06-25T08:07:42.537Z,24.79
2017-06-25T08:10:08.345Z,24.86
2017-06-25T08:12:34.211Z,24.20
2017-06-25T08:15:00.033Z,24.47
2017-06-25T08:17:25.863Z,24.09
2017-06-25T08:19:51.872Z,23.96
2017-06-25T08:22:17.912Z,23.96
2017-06-25T08:24:43.844Z,23.97
2017-06-25T08:27:09.720Z,24.04
2017-06-25T08:29:35.591Z,23.78
2017-06-25T08:32:01.503Z,23.39
2017-06-25T08:34:27.381Z,23.43
2017-06-25T08:36:53.217Z,23.32
2017-06-25T08:39:19.033Z,23.37
2017-06-25T08:41:44.942Z,23.37
2017-06-25T08:44:10.918Z,23.90
2017-06-25T08:46:36.887Z,24.32
2017-06-25T08:49:02.763Z,24.21
2017-06-25T08:51:28.709Z,24.57
2017-06-25T08:53:54.845Z,23.87
2017-06-25T08:56:20.809Z,24.92
2017-06-25T08:58:46.819Z,24.62
2017-06-25T09:01:12.700Z,24.15
2017-06-25T09:03:38.579Z,24.13
2017-06-25T09:06:04.493Z,24.77
2017-06-25T09:08:30.338Z,24.52
2017-06-25T09:10:56.286Z,24.41
2017-06-25T09:13:22.111Z,25.03
2017-06-25T09:15:47.930Z,25.22
2017-06-25T09:18:14.032Z,25.01
2017-06-25T09:20:39.937Z,24.39
2017-06-25T09:23:05.768Z,24.28
2017-06-25T09:25:31.633Z,25.37
2017-06-25T09:27:57.481Z,25.64
2017-06-25T09:30:23.541Z,25.95
2017-06-25T09:32:49.428Z,25.69
2017-06-25T09:35:15.245Z,25.80
2017-06-25T09:37:41.109Z,25.04
2017-06-25T09:40:06.934Z,24.78
2017-06-25T09:42:32.848Z,24.47
2017-06-25T09:44:58.867Z,24.51
2017-06-25T09:47:24.744Z,25.40
2017-06-25T09:49:50.594Z,25.39
2017-06-25T09:52:16.452Z,25.86
2017-06-25T09:54:42.260Z,25.58
2017-06-25T09:57:08.113Z,25.02
2017-06-25T09:59:33.968Z,24.73
2017-06-25T10:01:59.861Z,24.97
2017-06-25T10:04:25.698Z,25.50
2017-06-25T10:06:51.620Z,26.65
2017-06-25T10:09:17.553Z,26.97
2017-06-25T10:11:43.384Z,27.08
2017-06-25T10:14:09.272Z,25.89
2017-06-25T10:16:35.205Z,25.93
2017-06-25T10:19:01.861Z,27.39
2017-06-25T10:21:27.748Z,27.27
2017-06-25T10:23:53.751Z,26.58
2017-06-25T10:26:19.616Z,25.91
2017-06-25T10:28:45.499Z,25.84
2017-06-25T10:31:11.352Z,25.72
2017-06-25T10:33:37.316Z,25.53
2017-06-25T10:36:03.257Z,25.57
2017-06-25T10:38:29.177Z,25.18
2017-06-25T10:40:55.043Z,25.30
2017-06-25T10:43:20.985Z,27.18
2017-06-25T10:45:46.942Z,26.61
2017-06-25T10:48:12.975Z,26.04
2017-06-25T10:50:39.054Z,25.84
2017-06-25T10:53:04.925Z,25.53
2017-06-25T10:55:30.751Z,25.97
2017-06-25T10:57:57.839Z,25.86
2017-06-25T11:00:23.724Z,25.85
2017-06-25T11:02:50.459Z,26.86
2017-06-25T11:05:16.323Z,25.75
2017-06-25T11:07:42.192Z,25.78
2017-06-25T11:10:08.149Z,25.48
2017-06-25T11:12:34.232Z,24.49
2017-06-25T11:15:00.208Z,25.04
2017-06-25T11:17:26.055Z,25.13
2017-06-25T11:19:52.009Z,24.70
2017-06-25T11:22:17.884Z,24.59
2017-06-25T11:24:43.797Z,24.65
2017-06-25T11:27:09.692Z,24.38
2017-06-25T11:29:35.540Z,24.46
2017-06-25T11:32:01.411Z,24.12
2017-06-25T11:34:27.381Z,24.18
2017-06-25T11:36:53.225Z,24.59
2017-06-25T11:39:19.096Z,24.86
2017-06-25T11:41:44.988Z,24.54
2017-06-25T11:44:10.852Z,24.36
2017-06-25T11:46:36.733Z,24.47
2017-06-25T11:49:03.065Z,24.44
2017-06-25T11:51:28.973Z,24.49
2017-06-25T11:53:54.893Z,24.66
2017-06-25T11:56:20.816Z,24.22
2017-06-25T11:58:46.862Z,24.04
2017-06-25T12:01:12.788Z,24.03
2017-06-25T12:03:38.671Z,24.14
2017-06-25T12:06:04.520Z,24.17
2017-06-25T12:08:30.535Z,25.13
2017-06-25T12:10:56.506Z,25.79
2017-06-25T12:13:22.339Z,26.82
2017-06-25T12:15:48.184Z,25.96
2017-06-25T12:18:14.226Z,26.27
2017-06-25T12:20:40.160Z,26.23
2017-06-25T12:23:06.033Z,27.23
2017-06-25T12:25:32.017Z,26.60
2017-06-25T12:27:57.898Z,26.08
2017-06-25T12:30:23.863Z,26.09
2017-06-25T12:32:49.695Z,26.16
2017-06-25T12:35:15.576Z,26.81
2017-06-25T12:37:41.526Z,26.80
2017-06-25T12:40:07.374Z,26.04
2017-06-25T12:42:33.200Z,26.10
2017-06-25T12:44:59.096Z,26.41
2017-06-25T12:47:24.984Z,26.64
2017-06-25T12:49:50.839Z,26.02
2017-06-25T12:52:16.688Z,27.21
2017-06-25T12:54:42.613Z,26.69
2017-06-25T12:57:08.491Z,27.19
2017-06-25T12:59:34.331Z,27.28
2017-06-25T13:02:00.171Z,26.34
2017-06-25T13:04:26.143Z,26.48
2017-06-25T13:06:52.000Z,26.60
2017-06-25T13:09:19.863Z,26.62
2017-06-25T13:11:45.884Z,26.49
2017-06-25T13:14:11.788Z,26.56
2017-06-25T13:16:37.724Z,26.79
2017-06-25T13:19:03.550Z,27.00
2017-06-25T13:21:30.418Z,27.74
2017-06-25T13:23:56.331Z,27.20
2017-06-25T13:26:22.204Z,27.77
2017-06-25T13:28:48.030Z,28.01
2017-06-25T13:31:13.852Z,27.57
2017-06-25T13:33:39.735Z,27.53
2017-06-25T13:36:05.698Z,27.73
2017-06-25T13:38:31.527Z,27.25
2017-06-25T13:40:57.373Z,27.40
2017-06-25T13:43:23.358Z,27.26
2017-06-25T13:45:49.206Z,28.21
2017-06-25T13:48:15.223Z,28.22
2017-06-25T13:50:41.207Z,27.68
2017-06-25T13:53:07.030Z,27.58
2017-06-25T13:55:39.763Z,28.18
2017-06-25T13:58:05.631Z,27.29
2017-06-25T14:00:31.482Z,27.04
2017-06-25T14:02:57.779Z,27.34
2017-06-25T14:05:23.772Z,27.08
2017-06-25T14:07:49.676Z,25.90
2017-06-25T14:10:15.618Z,25.74
2017-06-25T14:12:41.492Z,25.82
2017-06-25T14:15:07.402Z,26.23
2017-06-25T14:17:33.259Z,27.18
2017-06-25T14:19:59.189Z,26.98
2017-06-25T14:22:25.044Z,26.56
2017-06-25T14:24:50.921Z,26.52
2017-06-25T14:27:16.821Z,26.75
2017-06-25T14:29:42.657Z,26.66
2017-06-25T14:32:08.583Z,26.49
2017-06-25T14:34:34.484Z,26.86
2017-06-25T14:37:00.356Z,26.67
2017-06-25T14:39:26.456Z,27.66
2017-06-25T14:41:52.488Z,27.05
2017-06-25T14:44:18.380Z,26.63
2017-06-25T14:46:44.319Z,26.63
2017-06-25T14:49:10.240Z,26.35
2017-06-25T14:51:36.135Z,26.57
2017-06-25T14:54:02.056Z,26.26
2017-06-25T14:56:28.020Z,25.98
2017-06-25T14:58:53.896Z,26.11
2017-06-25T15:01:19.867Z,25.75
2017-06-25T15:03:45.895Z,25.42
2017-06-25T15:06:11.861Z,25.54
2017-06-25T15:08:37.863Z,25.22
2017-06-25T15:11:03.922Z,25.09
2017-06-25T15:13:29.844Z,25.15
2017-06-25T15:15:55.782Z,24.99
2017-06-25T15:18:21.805Z,25.04
2017-06-25T15:20:47.706Z,24.98
2017-06-25T15:23:13.583Z,24.72
2017-06-25T15:25:39.448Z,24.69
2017-06-25T15:28:05.369Z,25.20
2017-06-25T15:30:31.227Z,25.27
2017-06-25T15:32:57.088Z,24.97
2017-06-25T15:35:22.936Z,25.04
2017-06-25T15:37:48.864Z,25.07
2017-06-25T15:40:14.703Z,24.74
2017-06-25T15:42:40.568Z,24.74
2017-06-25T15:45:06.385Z,24.69
2017-06-25T15:47:32.231Z,24.82
2017-06-25T15:49:58.137Z,24.81
2017-06-25T15:52:24.069Z,24.65
2017-06-25T15:54:49.927Z,24.69
2017-06-25T15:57:16.430Z,24.56
2017-06-25T15:59:42.300Z,24.36
2017-06-25T16:02:08.137Z,24.44
2017-06-25T16:04:33.959Z,24.54
2017-06-25T16:06:59.818Z,24.67
2017-06-25T16:09:25.725Z,24.35
2017-06-25T16:11:51.630Z,24.37
2017-06-25T16:14:17.687Z,24.49
2017-06-25T16:16:43.508Z,24.60
2017-06-25T16:19:09.512Z,24.77
2017-06-25T16:21:35.341Z,24.80
2017-06-25T16:24:01.180Z,24.65
2017-06-25T16:26:27.077Z,24.69
2017-06-25T16:28:52.966Z,24.73
2017-06-25T16:31:18.800Z,25.12
2017-06-25T16:33:45.560Z,25.46
2017-06-25T16:36:11.474Z,25.47
2017-06-25T16:38:37.429Z,25.37
2017-06-25T16:41:03.295Z,25.13
2017-06-25T16:43:36.034Z,24.89
2017-06-25T16:46:01.965Z,24.42
2017-06-25T16:48:27.828Z,24.25
2017-06-25T16:50:53.736Z,24.11
2017-06-25T16:53:19.781Z,24.20
2017-06-25T16:55:45.620Z,24.10
2017-06-25T16:58:11.648Z,24.34
2017-06-25T17:00:52.561Z,24.28
2017-06-25T17:03:18.448Z,23.96
2017-06-25T17:05:44.312Z,24.14
2017-06-25T17:08:10.245Z,24.03
2017-06-25T17:10:36.247Z,23.91
2017-06-25T17:13:02.179Z,23.89
2017-06-25T17:15:28.051Z,23.78
2017-06-25T17:17:53.917Z,23.73
2017-06-25T17:20:19.868Z,23.88
2017-06-25T17:22:46.283Z,24.04
2017-06-25T17:25:12.144Z,23.92
2017-06-25T17:27:37.988Z,24.08
2017-06-25T17:30:03.848Z,23.91
2017-06-25T17:32:29.745Z,23.74
2017-06-25T17:34:55.633Z,23.57
2017-06-25T17:37:21.460Z,23.32
2017-06-25T17:39:47.334Z,23.33
2017-06-25T17:42:13.242Z,23.27
2017-06-25T17:44:39.085Z,23.23
2017-06-25T17:47:04.894Z,23.31
2017-06-25T17:49:30.820Z,23.34
2017-06-25T17:51:56.738Z,23.34
2017-06-25T17:54:22.658Z,23.27
2017-06-25T17:56:48.526Z,23.34
2017-06-25T17:59:14.487Z,23.34
2017-06-25T18:01:40.390Z,23.42
2017-06-25T18:04:06.251Z,23.34
2017-06-25T18:06:32.092Z,23.25
2017-06-25T18:08:57.987Z,23.44
2017-06-25T18:11:23.860Z,23.10
2017-06-25T18:13:49.784Z,23.08
2017-06-25T18:16:15.669Z,23.09
2017-06-25T18:18:41.554Z,22.91
2017-06-25T18:21:07.393Z,22.75
2017-06-25T18:23:33.264Z,23.02
2017-06-25T18:25:59.212Z,23.01
2017-06-25T18:28:25.083Z,22.95
2017-06-25T18:30:50.915Z,22.79
2017-06-25T18:33:16.754Z,22.78
2017-06-25T18:35:42.628Z,22.84
2017-06-25T18:38:08.492Z,22.75
2017-06-25T18:40:34.404Z,22.59
2017-06-25T18:43:00.266Z,22.81
2017-06-25T18:45:26.177Z,22.75
2017-06-25T18:47:52.115Z,22.79
2017-06-25T18:50:17.966Z,22.64
2017-06-25T18:52:43.778Z,22.62
2017-06-25T18:55:09.658Z,22.57
2017-06-25T18:57:35.607Z,22.51
2017-06-25T19:00:01.452Z,22.53
2017-06-25T19:02:27.292Z,22.54
2017-06-25T19:04:53.142Z,22.21
2017-06-25T19:07:19.050Z,22.52
2017-06-25T19:09:44.961Z,22.39
2017-06-25T19:12:10.793Z,22.24
2017-06-25T19:14:36.704Z,22.23
2017-06-25T19:17:02.569Z,22.31
2017-06-25T19:19:28.429Z,22.16
2017-06-25T19:21:54.345Z,22.06
2017-06-25T19:24:20.175Z,22.13
2017-06-25T19:26:45.994Z,22.17
2017-06-25T19:29:11.946Z,22.10
2017-06-25T19:31:37.773Z,22.07
2017-06-25T19:34:03.638Z,22.05
2017-06-25T19:36:29.625Z,21.94
2017-06-25T19:38:55.695Z,21.98
2017-06-25T19:41:21.616Z,21.96
2017-06-25T19:43:47.569Z,21.95
2017-06-25T19:46:13.587Z,21.97
2017-06-25T19:48:39.415Z,21.95
2017-06-25T19:51:05.354Z,21.85
2017-06-25T19:53:31.196Z,21.90
2017-06-25T19:55:57.223Z,21.80
2017-06-25T19:58:23.074Z,21.87
2017-06-25T20:00:49.082Z,21.82
2017-06-25T20:03:15.055Z,21.77
2017-06-25T20:05:40.922Z,21.74
2017-06-25T20:08:06.780Z,21.87
2017-06-25T20:10:32.685Z,21.90
2017-06-25T20:12:58.624Z,21.58
2017-06-25T20:15:24.548Z,21.86
2017-06-25T20:17:50.437Z,21.81
2017-06-25T20:20:16.403Z,21.74
2017-06-25T20:22:42.240Z,21.69
2017-06-25T20:25:08.093Z,21.72
2017-06-25T20:27:34.055Z,21.73
2017-06-25T20:29:59.944Z,21.66
2017-06-25T20:32:25.956Z,21.75
2017-06-25T20:34:51.893Z,21.72
2017-06-25T20:37:17.761Z,21.67
2017-06-25T20:39:43.648Z,21.71
2017-06-25T20:42:09.552Z,21.60
2017-06-25T20:44:35.441Z,21.62
2017-06-25T20:47:01.340Z,21.64
2017-06-25T20:49:27.208Z,21.54
2017-06-25T20:51:53.051Z,21.54
2017-06-25T20:54:18.954Z,21.49
2017-06-25T20:56:44.908Z,21.33
2017-06-25T20:59:10.797Z,21.42
2017-06-25T21:01:36.809Z,21.36
2017-06-25T21:04:02.747Z,21.35
2017-06-25T21:06:28.589Z,21.33
2017-06-25T21:08:54.497Z,21.28
2017-06-25T21:11:20.388Z,21.25
2017-06-25T21:13:46.313Z,21.25
2017-06-25T21:16:12.284Z,21.23
2017-06-25T21:18:38.142Z,21.08
2017-06-25T21:21:04.081Z,21.04
2017-06-25T21:23:29.959Z,21.11
2017-06-25T21:25:55.792Z,21.07
2017-06-25T21:28:21.636Z,20.98
2017-06-25T21:30:47.601Z,20.89
2017-06-25T21:33:13.440Z,20.78
2017-06-25T21:35:39.349Z,20.73
2017-06-25T21:38:05.227Z,20.50
2017-06-25T21:40:31.141Z,20.44
2017-06-25T21:42:57.109Z,20.56
2017-06-25T21:45:23.025Z,20.54
2017-06-25T21:47:48.924Z,20.47
2017-06-25T21:50:14.800Z,20.14
2017-06-25T21:52:40.703Z,20.36
2017-06-25T21:55:06.565Z,20.23
2017-06-25T21:57:32.404Z,20.01
2017-06-25T21:59:58.266Z,19.94
2017-06-25T22:02:24.149Z,20.03
2017-06-25T22:04:50.053Z,19.98
2017-06-25T22:07:15.948Z,19.94
2017-06-25T22:09:41.841Z,19.90
2017-06-25T22:12:07.708Z,19.92
2017-06-25T22:14:33.652Z,19.84
2017-06-25T22:16:59.544Z,19.75
2017-06-25T22:19:25.389Z,19.75
2017-06-25T22:21:51.249Z,19.78
2017-06-25T22:24:17.116Z,19.77
2017-06-25T22:26:43.059Z,19.78
2017-06-25T22:29:08.887Z,19.65
2017-06-25T22:31:34.777Z,19.54
2017-06-25T22:34:00.772Z,19.62
2017-06-25T22:36:26.701Z,19.65
2017-06-25T22:38:52.549Z,19.67
2017-06-25T22:41:18.752Z,19.63
2017-06-25T22:43:44.635Z,19.72
2017-06-25T22:46:10.837Z,18.83
2017-06-25T22:48:38.325Z,19.47
2017-06-25T22:51:04.184Z,19.53
2017-06-25T22:53:30.092Z,19.50
2017-06-25T22:55:55.960Z,19.44
2017-06-25T22:58:21.818Z,19.39
2017-06-25T23:00:47.868Z,19.43
2017-06-25T23:03:13.788Z,19.41
2017-06-25T23:05:39.672Z,19.38
2017-06-25T23:08:05.510Z,19.38
2017-06-25T23:10:31.579Z,19.23
2017-06-25T23:12:57.471Z,19.29
2017-06-25T23:15:23.299Z,19.22
2017-06-25T23:17:49.163Z,19.09
2017-06-25T23:20:14.988Z,19.20
2017-06-25T23:22:41.000Z,19.13
2017-06-25T23:25:06.832Z,19.02
2017-06-25T23:27:32.714Z,19.12
2017-06-25T23:29:58.632Z,19.02
2017-06-25T23:32:25.285Z,18.87
2017-06-25T23:34:51.165Z,18.83
2017-06-25T23:37:17.188Z,18.81
2017-06-25T23:39:43.116Z,18.88
2017-06-25T23:42:09.016Z,18.66
2017-06-25T23:44:34.880Z,18.81
2017-06-25T23:47:00.784Z,18.65
2017-06-25T23:49:26.685Z,18.53
2017-06-25T23:51:52.620Z,18.49
2017-06-25T23:54:18.467Z,18.45
2017-06-25T23:56:44.345Z,18.46
2017-06-25T23:59:11.191Z,18.57
